Baton Rouge, Louisiana
Current Conditions -  °F | °C
As of 10:53 AM on Wednesday 26 Nov 2014 (Local Time) from KBTR Reporting Station
Clear Clear  
Wind Chill: 62°   Ceiling: Unl
Heat Index: 62°   Visibility: 10mi
Dew Point: 41°   Wind: 12mph
Humidity: 46%   Direction: 230°SW
Pressure: 30.23"   Gusts: NA
Location:  30.44°N, 91.19°W
Report Text: KBTR 261653Z AUTO 23010KT 10SM CLR 17/05 A3023 RMK AO2 SLP236 T01670050 TSNO
Loading
Personal Weather Stations






























Interactive Weather Map New forecast layout! Learn more

10-Day Weather Forecast

Advertisements
Track Severe Weather on mobile